Mortlake, United Kingdom
Current Conditions -  °F | °C
As of 4:20 AM on Sunday 23 Nov 2014 (Local Time) from EGLL Reporting Station
Moderate Rain Moderate Rain  
Wind Chill: 52°   Ceiling: 300
Heat Index: 52°   Visibility: 2.6mi
Dew Point: 50°   Wind: 6mph
Humidity: 94%   Direction: 310°NW
Pressure: 29.94"   Gusts: NA
Location:  51.46°N, 0.27°W
Report Text: EGLL 230420Z AUTO 31005KT 290V360 4300 RA OVC003/// //////CB 11/10 Q1014
Loading
Personal Weather Stations






























Interactive Weather Map New forecast layout! Learn more

10-Day Weather Forecast

Advertisements
Track Severe Weather on mobile